createdAt,value
2018-08-19T00:00:54.162Z,1018.15
2018-08-19T00:01:54.161Z,1018.13
2018-08-19T00:02:54.162Z,1018.10
2018-08-19T00:03:54.161Z,1018.11
2018-08-19T00:04:54.160Z,1018.16
2018-08-19T00:05:54.158Z,1018.12
2018-08-19T00:06:54.151Z,1018.16
2018-08-19T00:07:54.148Z,1018.12
2018-08-19T00:08:54.151Z,1018.11
2018-08-19T00:09:54.150Z,1018.13
2018-08-19T00:10:54.143Z,1018.11
2018-08-19T00:11:54.140Z,1018.12
2018-08-19T00:12:54.137Z,1018.06
2018-08-19T00:13:54.138Z,1018.09
2018-08-19T00:14:54.139Z,1018.01
2018-08-19T00:15:54.136Z,1018.06
2018-08-19T00:16:54.134Z,1018.04
2018-08-19T00:17:54.132Z,1018.06
2018-08-19T00:18:54.130Z,1018.05
2018-08-19T00:19:54.124Z,1018.01
2018-08-19T00:20:54.123Z,1018.00
2018-08-19T00:21:54.121Z,1018.01
2018-08-19T00:22:54.123Z,1017.99
2018-08-19T00:23:54.120Z,1018.01
2018-08-19T00:24:54.113Z,1018.01
2018-08-19T00:25:54.111Z,1018.00
2018-08-19T00:26:54.114Z,1017.96
2018-08-19T00:27:54.112Z,1017.92
2018-08-19T00:28:54.110Z,1017.96
2018-08-19T00:29:54.108Z,1017.93
2018-08-19T00:30:54.101Z,1017.96
2018-08-19T00:31:54.101Z,1017.91
2018-08-19T00:32:54.098Z,1017.95
2018-08-19T00:33:54.095Z,1017.90
2018-08-19T00:34:54.098Z,1017.90
2018-08-19T00:35:54.095Z,1017.90
2018-08-19T00:36:54.093Z,1017.86
2018-08-19T00:37:54.090Z,1017.87
2018-08-19T00:38:54.084Z,1017.83
2018-08-19T00:39:54.081Z,1017.89
2018-08-19T00:40:54.083Z,1017.85
2018-08-19T00:41:54.085Z,1017.86
2018-08-19T00:42:54.075Z,1017.86
2018-08-19T00:43:54.077Z,1017.85
2018-08-19T00:44:54.070Z,1017.84
2018-08-19T00:45:54.068Z,1017.82
2018-08-19T00:46:54.071Z,1017.87
2018-08-19T00:47:54.068Z,1017.86
2018-08-19T00:48:54.065Z,1017.88
2018-08-19T00:49:54.064Z,1017.89
2018-08-19T00:50:54.057Z,1017.88
2018-08-19T00:51:54.055Z,1017.88
2018-08-19T00:52:54.051Z,1017.84
2018-08-19T00:53:54.049Z,1017.88
2018-08-19T00:54:54.051Z,1017.87
2018-08-19T00:55:54.048Z,1017.91
2018-08-19T00:56:54.042Z,1017.90
2018-08-19T00:57:54.040Z,1017.87
2018-08-19T00:58:54.042Z,1017.87
2018-08-19T00:59:54.040Z,1017.82
2018-08-19T01:00:54.039Z,1017.87
2018-08-19T01:01:54.037Z,1017.81
2018-08-19T01:02:54.030Z,1017.83
2018-08-19T01:03:54.026Z,1017.81
2018-08-19T01:04:54.024Z,1017.79
2018-08-19T01:05:54.021Z,1017.83
2018-08-19T01:06:54.024Z,1017.81
2018-08-19T01:07:54.022Z,1017.81
2018-08-19T01:08:54.018Z,1017.80
2018-08-19T01:09:54.015Z,1017.78
2018-08-19T01:10:54.009Z,1017.82
2018-08-19T01:11:54.007Z,1017.78
2018-08-19T01:12:54.011Z,1017.78
2018-08-19T01:13:54.007Z,1017.78
2018-08-19T01:14:53.999Z,1017.76
2018-08-19T01:15:53.995Z,1017.74
2018-08-19T01:16:53.993Z,1017.76
2018-08-19T01:17:53.994Z,1017.79
2018-08-19T01:18:53.995Z,1017.75
2018-08-19T01:19:53.992Z,1017.78
2018-08-19T01:20:53.993Z,1017.75
2018-08-19T01:21:53.989Z,1017.78
2018-08-19T01:22:53.982Z,1017.80
2018-08-19T01:23:53.976Z,1017.75
2018-08-19T01:24:53.974Z,1017.78
2018-08-19T01:25:53.971Z,1017.78
2018-08-19T01:26:53.973Z,1017.77
2018-08-19T01:27:53.971Z,1017.76
2018-08-19T01:28:53.966Z,1017.77
2018-08-19T01:29:53.961Z,1017.77
2018-08-19T01:30:53.964Z,1017.75
2018-08-19T01:31:53.960Z,1017.78
2018-08-19T01:32:53.958Z,1017.78
2018-08-19T01:33:53.955Z,1017.77
2018-08-19T01:34:53.949Z,1017.76
2018-08-19T01:35:53.946Z,1017.74
2018-08-19T01:36:53.943Z,1017.76
2018-08-19T01:37:53.941Z,1017.80
2018-08-19T01:38:53.943Z,1017.78
2018-08-19T01:39:53.939Z,1017.74
2018-08-19T01:40:53.937Z,1017.72
2018-08-19T01:41:53.936Z,1017.73
2018-08-19T01:42:53.928Z,1017.76
2018-08-19T01:43:53.924Z,1017.79
2018-08-19T01:44:53.927Z,1017.72
2018-08-19T01:45:53.926Z,1017.79
2018-08-19T01:46:53.919Z,1017.75
2018-08-19T01:47:53.915Z,1017.76
2018-08-19T01:48:53.912Z,1017.75
2018-08-19T01:49:53.909Z,1017.80
2018-08-19T01:50:53.912Z,1017.76
2018-08-19T01:51:53.907Z,1017.77
2018-08-19T01:52:53.905Z,1017.79
2018-08-19T01:53:53.903Z,1017.73
2018-08-19T01:54:53.896Z,1017.75
2018-08-19T01:55:53.893Z,1017.77
2018-08-19T01:56:53.892Z,1017.67
2018-08-19T01:57:53.888Z,1017.68
2018-08-19T01:58:53.892Z,1017.68
2018-08-19T01:59:53.887Z,1017.67
2018-08-19T02:00:53.880Z,1017.71
2018-08-19T02:01:53.879Z,1017.67
2018-08-19T02:02:53.886Z,1017.68
2018-08-19T02:03:53.877Z,1017.72
2018-08-19T02:04:53.874Z,1017.69
2018-08-19T02:05:53.871Z,1017.70
2018-08-19T02:06:53.869Z,1017.73
2018-08-19T02:07:53.861Z,1017.69
2018-08-19T02:08:53.859Z,1017.69
2018-08-19T02:09:53.857Z,1017.69
2018-08-19T02:10:53.859Z,1017.67
2018-08-19T02:11:53.854Z,1017.69
2018-08-19T02:12:53.852Z,1017.72
2018-08-19T02:13:53.855Z,1017.69
2018-08-19T02:14:53.843Z,1017.73
2018-08-19T02:15:53.840Z,1017.67
2018-08-19T02:16:53.846Z,1017.69
2018-08-19T02:17:53.843Z,1017.70
2018-08-19T02:18:53.833Z,1017.66
2018-08-19T02:19:53.829Z,1017.70
2018-08-19T02:20:53.826Z,1017.69
2018-08-19T02:21:53.824Z,1017.69
2018-08-19T02:22:53.825Z,1017.69
2018-08-19T02:23:53.822Z,1017.72
2018-08-19T02:24:53.819Z,1017.67
2018-08-19T02:25:53.817Z,1017.72
2018-08-19T02:26:53.810Z,1017.70
2018-08-19T02:27:53.806Z,1017.72
2018-08-19T02:28:53.804Z,1017.68
2018-08-19T02:29:53.802Z,1017.68
2018-08-19T02:30:53.804Z,1017.72
2018-08-19T02:31:53.801Z,1017.72
2018-08-19T02:32:53.793Z,1017.65
2018-08-19T02:33:53.791Z,1017.67
2018-08-19T02:34:53.796Z,1017.64
2018-08-19T02:35:53.792Z,1017.65
2018-08-19T02:36:53.786Z,1017.67
2018-08-19T02:37:53.784Z,1017.63
2018-08-19T02:38:53.779Z,1017.63
2018-08-19T02:39:53.773Z,1017.63
2018-08-19T02:40:53.771Z,1017.61
2018-08-19T02:41:53.772Z,1017.64
2018-08-19T02:42:53.770Z,1017.65
2018-08-19T02:43:53.767Z,1017.63
2018-08-19T02:44:53.764Z,1017.65
2018-08-19T02:45:53.761Z,1017.67
2018-08-19T02:46:53.754Z,1017.64
2018-08-19T02:47:53.750Z,1017.64
2018-08-19T02:48:53.751Z,1017.63
2018-08-19T02:49:53.751Z,1017.61
2018-08-19T02:50:53.742Z,1017.62
2018-08-19T02:51:53.738Z,1017.61
2018-08-19T02:52:53.739Z,1017.62
2018-08-19T02:53:53.733Z,1017.58
2018-08-19T02:54:53.737Z,1017.56
2018-08-19T02:55:53.733Z,1017.57
2018-08-19T02:56:53.730Z,1017.60
2018-08-19T02:57:53.728Z,1017.60
2018-08-19T02:58:53.719Z,1017.63
2018-08-19T02:59:53.715Z,1017.55
2018-08-19T03:00:53.712Z,1017.59
2018-08-19T03:01:53.712Z,1017.55
2018-08-19T03:02:53.712Z,1017.58
2018-08-19T03:03:53.708Z,1017.58
2018-08-19T03:04:53.701Z,1017.61
2018-08-19T03:05:53.699Z,1017.59
2018-08-19T03:06:53.701Z,1017.58
2018-08-19T03:07:53.696Z,1017.56
2018-08-19T03:08:53.693Z,1017.57
2018-08-19T03:09:53.692Z,1017.55
2018-08-19T03:10:53.683Z,1017.60
2018-08-19T03:11:53.681Z,1017.59
2018-08-19T03:12:53.677Z,1017.58
2018-08-19T03:13:53.675Z,1017.62
2018-08-19T03:14:53.677Z,1017.60
2018-08-19T03:15:53.673Z,1017.60
2018-08-19T03:16:53.670Z,1017.56
2018-08-19T03:17:53.670Z,1017.65
2018-08-19T03:18:53.659Z,1017.67
2018-08-19T03:19:53.656Z,1017.60
2018-08-19T03:20:53.660Z,1017.60
2018-08-19T03:21:53.655Z,1017.62
2018-08-19T03:22:53.649Z,1017.60
2018-08-19T03:23:53.645Z,1017.60
2018-08-19T03:24:53.640Z,1017.62
2018-08-19T03:25:53.638Z,1017.58
2018-08-19T03:26:53.641Z,1017.60
2018-08-19T03:27:53.637Z,1017.64
2018-08-19T03:28:53.633Z,1017.61
2018-08-19T03:29:53.630Z,1017.58
2018-08-19T03:30:53.623Z,1017.55
2018-08-19T03:31:53.619Z,1017.62
2018-08-19T03:32:53.617Z,1017.53
2018-08-19T03:33:53.613Z,1017.52
2018-08-19T03:34:53.616Z,1017.61
2018-08-19T03:35:53.615Z,1017.54
2018-08-19T03:36:53.605Z,1017.56
2018-08-19T03:37:53.664Z,1017.56
2018-08-19T03:38:53.602Z,1017.57
2018-08-19T03:39:53.598Z,1017.53
2018-08-19T03:40:53.599Z,1017.51
2018-08-19T03:41:53.594Z,1017.57
2018-08-19T03:42:53.587Z,1017.56
2018-08-19T03:43:53.582Z,1017.57
2018-08-19T03:44:53.579Z,1017.61
2018-08-19T03:45:53.577Z,1017.60
2018-08-19T03:46:53.580Z,1017.58
2018-08-19T03:47:53.574Z,1017.65
2018-08-19T03:48:53.572Z,1017.65
2018-08-19T03:49:53.569Z,1017.63
2018-08-19T03:50:53.561Z,1017.63
2018-08-19T03:51:53.557Z,1017.62
2018-08-19T03:52:53.560Z,1017.62
2018-08-19T03:53:53.561Z,1017.62
2018-08-19T03:54:53.549Z,1017.58
2018-08-19T03:55:53.545Z,1017.63
2018-08-19T03:56:53.541Z,1017.62
2018-08-19T03:57:53.538Z,1017.61
2018-08-19T03:58:53.541Z,1017.58
2018-08-19T03:59:53.548Z,1017.55
2018-08-19T04:00:53.533Z,1017.61
2018-08-19T04:01:53.530Z,1017.55
2018-08-19T04:02:53.574Z,1017.58
2018-08-19T04:03:53.519Z,1017.57
2018-08-19T04:04:53.519Z,1017.57
2018-08-19T04:05:53.514Z,1017.56
2018-08-19T04:06:53.516Z,1017.52
2018-08-19T04:07:53.512Z,1017.47
2018-08-19T04:08:53.505Z,1017.54
2018-08-19T04:09:53.501Z,1017.51
2018-08-19T04:10:53.504Z,1017.51
2018-08-19T04:11:53.500Z,1017.58
2018-08-19T04:12:53.496Z,1017.51
2018-08-19T04:13:53.494Z,1017.49
2018-08-19T04:14:53.486Z,1017.54
2018-08-19T04:15:53.481Z,1017.50
2018-08-19T04:16:53.483Z,1017.52
2018-08-19T04:17:53.476Z,1017.51
2018-08-19T04:18:53.478Z,1017.47
2018-08-19T04:19:53.475Z,1017.52
2018-08-19T04:20:53.473Z,1017.54
2018-08-19T04:21:53.475Z,1017.55
2018-08-19T04:22:53.462Z,1017.54
2018-08-19T04:23:53.458Z,1017.58
2018-08-19T04:24:53.463Z,1017.52
2018-08-19T04:25:53.458Z,1017.53
2018-08-19T04:26:53.449Z,1017.56
2018-08-19T04:27:53.445Z,1017.55
2018-08-19T04:28:53.443Z,1017.49
2018-08-19T04:29:53.439Z,1017.52
2018-08-19T04:30:53.441Z,1017.51
2018-08-19T04:31:53.438Z,1017.51
2018-08-19T04:32:53.436Z,1017.53
2018-08-19T04:33:53.432Z,1017.55
2018-08-19T04:34:53.428Z,1017.55
2018-08-19T04:35:53.421Z,1017.56
2018-08-19T04:36:53.418Z,1017.56
2018-08-19T04:37:53.417Z,1017.59
2018-08-19T04:38:53.418Z,1017.58
2018-08-19T04:39:53.414Z,1017.56
2018-08-19T04:40:53.406Z,1017.58
2018-08-19T04:41:53.403Z,1017.54
2018-08-19T04:42:53.408Z,1017.54
2018-08-19T04:43:53.402Z,1017.55
2018-08-19T04:44:53.398Z,1017.56
2018-08-19T04:45:53.397Z,1017.56
2018-08-19T04:46:53.393Z,1017.55
2018-08-19T04:47:53.384Z,1017.57
2018-08-19T04:48:53.381Z,1017.54
2018-08-19T04:49:53.378Z,1017.53
2018-08-19T04:50:53.383Z,1017.53
2018-08-19T04:51:53.379Z,1017.56
2018-08-19T04:52:53.376Z,1017.52
2018-08-19T04:53:53.373Z,1017.54
2018-08-19T04:54:53.364Z,1017.55
2018-08-19T04:55:53.363Z,1017.64
2018-08-19T04:56:53.363Z,1017.61
2018-08-19T04:57:53.360Z,1017.62
2018-08-19T04:58:53.353Z,1017.69
2018-08-19T04:59:53.349Z,1017.64
2018-08-19T05:00:53.347Z,1017.66
2018-08-19T05:01:53.349Z,1017.70
2018-08-19T05:02:53.347Z,1017.72
2018-08-19T05:03:53.342Z,1017.76
2018-08-19T05:04:53.341Z,1017.75
2018-08-19T05:05:53.339Z,1017.83
2018-08-19T05:06:53.331Z,1017.84
2018-08-19T05:07:53.400Z,1017.90
2018-08-19T05:08:53.327Z,1017.84
2018-08-19T05:09:53.325Z,1017.86
2018-08-19T05:10:53.328Z,1017.91
2018-08-19T05:11:53.329Z,1017.92
2018-08-19T05:12:53.317Z,1017.98
2018-08-19T05:13:53.319Z,1018.03
2018-08-19T05:14:53.319Z,1018.05
2018-08-19T05:15:53.317Z,1018.04
2018-08-19T05:16:53.314Z,1018.07
2018-08-19T05:17:53.312Z,1018.09
2018-08-19T05:18:53.307Z,1018.14
2018-08-19T05:19:53.304Z,1018.13
2018-08-19T05:20:53.303Z,1018.15
2018-08-19T05:21:53.303Z,1018.17
2018-08-19T05:22:53.307Z,1018.14
2018-08-19T05:23:53.304Z,1018.15
2018-08-19T05:24:53.305Z,1018.20
2018-08-19T05:25:53.305Z,1018.21
2018-08-19T05:26:53.299Z,1018.26
2018-08-19T05:27:53.297Z,1018.27
2018-08-19T05:28:53.301Z,1018.21
2018-08-19T05:29:53.300Z,1018.20
2018-08-19T05:30:53.299Z,1018.24
2018-08-19T05:31:53.296Z,1018.20
2018-08-19T05:32:53.297Z,1018.24
2018-08-19T05:33:53.295Z,1018.27
2018-08-19T05:34:53.302Z,1018.26
2018-08-19T05:35:53.298Z,1018.31
2018-08-19T05:36:53.300Z,1018.32
2018-08-19T05:37:53.359Z,1018.41
2018-08-19T05:38:53.295Z,1018.37
2018-08-19T05:39:53.295Z,1018.40
2018-08-19T05:40:53.296Z,1018.41
2018-08-19T05:41:53.298Z,1018.37
2018-08-19T05:42:53.303Z,1018.44
2018-08-19T05:43:53.303Z,1018.40
2018-08-19T05:44:53.298Z,1018.38
2018-08-19T05:45:53.301Z,1018.50
2018-08-19T05:46:53.306Z,1018.48
2018-08-19T05:47:53.307Z,1018.56
2018-08-19T05:48:53.310Z,1018.55
2018-08-19T05:49:53.309Z,1018.56
2018-08-19T05:50:53.306Z,1018.64
2018-08-19T05:51:53.310Z,1018.57
2018-08-19T05:52:53.312Z,1018.61
2018-08-19T05:53:53.325Z,1018.59
2018-08-19T05:54:53.319Z,1018.60
2018-08-19T05:55:53.320Z,1018.65
2018-08-19T05:56:53.321Z,1018.59
2018-08-19T05:57:53.324Z,1018.62
2018-08-19T05:58:53.327Z,1018.67
2018-08-19T05:59:53.326Z,1018.65
2018-08-19T06:00:53.331Z,1018.70
2018-08-19T06:01:53.337Z,1018.73
2018-08-19T06:02:53.333Z,1018.84
2018-08-19T06:03:53.338Z,1018.84
2018-08-19T06:04:53.340Z,1018.75
2018-08-19T06:05:53.343Z,1018.78
2018-08-19T06:06:53.352Z,1018.86
2018-08-19T06:07:53.354Z,1018.86
2018-08-19T06:08:53.358Z,1018.83
2018-08-19T06:09:53.361Z,1018.90
2018-08-19T06:10:53.361Z,1018.88
2018-08-19T06:11:53.363Z,1018.86
2018-08-19T06:12:53.371Z,1018.89
2018-08-19T06:13:53.372Z,1018.92
2018-08-19T06:14:53.381Z,1018.93
2018-08-19T06:15:53.425Z,1018.91
2018-08-19T06:16:53.388Z,1018.93
2018-08-19T06:17:53.391Z,1018.95
2018-08-19T06:18:53.399Z,1018.90
2018-08-19T06:19:53.403Z,1018.92
2018-08-19T06:20:53.408Z,1018.88
2018-08-19T06:21:53.425Z,1018.95
2018-08-19T06:22:53.413Z,1018.93
2018-08-19T06:23:53.418Z,1018.96
2018-08-19T06:24:53.424Z,1019.01
2018-08-19T06:25:53.428Z,1019.00
2018-08-19T06:26:53.439Z,1019.06
2018-08-19T06:27:53.443Z,1019.02
2018-08-19T06:28:53.450Z,1019.05
2018-08-19T06:29:53.454Z,1019.04
2018-08-19T06:30:53.455Z,1019.05
2018-08-19T06:31:53.460Z,1019.05
2018-08-19T06:32:53.471Z,1019.07
2018-08-19T06:33:53.478Z,1019.13
2018-08-19T06:34:53.637Z,1019.08
2018-08-19T06:35:53.485Z,1019.10
2018-08-19T06:36:53.489Z,1019.11
2018-08-19T06:37:53.497Z,1019.12
2018-08-19T06:38:53.508Z,1019.11
2018-08-19T06:39:53.514Z,1019.17
2018-08-19T06:40:53.520Z,1019.13
2018-08-19T06:41:53.527Z,1019.11
2018-08-19T06:42:53.528Z,1019.16
2018-08-19T06:43:53.534Z,1019.17
2018-08-19T06:44:53.542Z,1019.19
2018-08-19T06:45:53.551Z,1019.19
2018-08-19T06:46:53.563Z,1019.15
2018-08-19T06:47:53.577Z,1019.16
2018-08-19T06:48:53.571Z,1019.15
2018-08-19T06:49:53.579Z,1019.09
2018-08-19T06:50:53.591Z,1019.13
2018-08-19T06:51:53.597Z,1019.13
2018-08-19T06:52:53.607Z,1019.15
2018-08-19T06:53:53.615Z,1019.15
2018-08-19T06:54:53.617Z,1019.15
2018-08-19T06:55:53.625Z,1019.20
2018-08-19T06:56:53.634Z,1019.14
2018-08-19T06:57:53.642Z,1019.17
2018-08-19T06:58:53.655Z,1019.22
2018-08-19T06:59:53.662Z,1019.21
2018-08-19T07:00:53.672Z,1019.23
2018-08-19T07:01:53.681Z,1019.23
2018-08-19T07:02:53.686Z,1019.24
2018-08-19T07:03:53.718Z,1019.30
2018-08-19T07:04:53.707Z,1019.01
2018-08-19T07:05:53.717Z,1019.08
2018-08-19T07:06:53.720Z,1018.82
2018-08-19T07:07:53.729Z,1019.04
2018-08-19T07:08:53.742Z,1018.82
2018-08-19T07:09:53.748Z,1018.90
2018-08-19T07:10:53.763Z,1018.79
2018-08-19T07:11:53.771Z,1018.62
2018-08-19T07:12:53.781Z,1018.57
2018-08-19T07:13:53.790Z,1018.63
2018-08-19T07:14:53.795Z,1018.53
2018-08-19T07:15:53.803Z,1018.55
2018-08-19T07:16:53.812Z,1018.64
2018-08-19T07:17:53.820Z,1018.86
2018-08-19T07:18:53.836Z,1018.63
2018-08-19T07:19:53.844Z,1018.51
2018-08-19T07:20:53.846Z,1018.60
2018-08-19T07:21:53.855Z,1018.94
2018-08-19T07:22:53.868Z,1018.84
2018-08-19T07:23:54.059Z,1018.90
2018-08-19T07:24:53.891Z,1019.17
2018-08-19T07:25:53.893Z,1019.08
2018-08-19T07:26:53.896Z,1018.80
2018-08-19T07:27:53.903Z,1019.05
2018-08-19T07:28:53.912Z,1019.15
2018-08-19T07:29:53.921Z,1018.75
2018-08-19T07:30:53.933Z,1018.74
2018-08-19T07:31:53.943Z,1018.57
2018-08-19T07:32:53.951Z,1018.58
2018-08-19T07:33:53.961Z,1018.29
2018-08-19T07:34:53.964Z,1018.26
2018-08-19T07:35:53.971Z,1018.29
2018-08-19T07:36:54.074Z,1018.28
2018-08-19T07:37:53.996Z,1018.25
2018-08-19T07:38:53.999Z,1018.25
2018-08-19T07:39:54.006Z,1018.25
2018-08-19T07:40:54.014Z,1018.17
2018-08-19T07:41:54.021Z,1018.18
2018-08-19T07:42:54.033Z,1018.16
2018-08-19T07:43:54.109Z,1018.14
2018-08-19T07:44:54.049Z,1018.18
2018-08-19T07:45:54.055Z,1018.12
2018-08-19T07:46:54.060Z,1018.17
2018-08-19T07:47:54.065Z,1018.17
2018-08-19T07:48:54.072Z,1018.15
2018-08-19T07:49:54.079Z,1018.13
2018-08-19T07:50:54.091Z,1018.11
2018-08-19T07:51:54.097Z,1018.18
2018-08-19T07:52:54.099Z,1018.07
2018-08-19T07:53:54.105Z,1018.12
2018-08-19T07:54:54.117Z,1018.14
2018-08-19T07:55:54.121Z,1018.15
2018-08-19T07:56:54.128Z,1018.14
2018-08-19T07:57:54.139Z,1018.17
2018-08-19T07:58:54.135Z,1018.12
2018-08-19T07:59:54.141Z,1018.15
2018-08-19T08:00:54.148Z,1018.14
2018-08-19T08:01:54.155Z,1018.17
2018-08-19T08:02:54.165Z,1018.15
2018-08-19T08:03:54.169Z,1018.14
2018-08-19T08:04:54.175Z,1018.17
2018-08-19T08:05:54.182Z,1018.17
2018-08-19T08:06:54.184Z,1018.20
2018-08-19T08:07:54.188Z,1018.36
2018-08-19T08:08:54.199Z,1018.26
2018-08-19T08:09:54.209Z,1018.50
2018-08-19T08:10:54.218Z,1018.34
2018-08-19T08:11:54.214Z,1018.36
2018-08-19T08:12:54.225Z,1018.37
2018-08-19T08:13:54.323Z,1018.33
2018-08-19T08:14:54.241Z,1018.52
2018-08-19T08:15:54.247Z,1018.24
2018-08-19T08:16:54.255Z,1018.29
2018-08-19T08:17:54.265Z,1018.24
2018-08-19T08:18:54.270Z,1018.41
2018-08-19T08:19:54.272Z,1018.37
2018-08-19T08:20:54.280Z,1018.39
2018-08-19T08:21:54.289Z,1018.43
2018-08-19T08:22:54.301Z,1018.45
2018-08-19T08:23:54.314Z,1018.48
2018-08-19T08:24:54.312Z,1018.52
2018-08-19T08:25:54.322Z,1018.53
2018-08-19T08:26:54.339Z,1018.56
2018-08-19T08:27:54.344Z,1018.57
2018-08-19T08:28:54.356Z,1018.56
2018-08-19T08:29:54.366Z,1018.55
2018-08-19T08:30:54.370Z,1018.68
2018-08-19T08:31:54.383Z,1018.62
2018-08-19T08:32:54.401Z,1018.66
2018-08-19T08:33:54.404Z,1018.65
2018-08-19T08:34:54.422Z,1018.60
2018-08-19T08:35:54.433Z,1018.63
2018-08-19T08:36:54.445Z,1018.62
2018-08-19T08:37:54.457Z,1018.67
2018-08-19T08:38:54.471Z,1018.71
2018-08-19T08:39:54.478Z,1018.72
2018-08-19T08:40:54.496Z,1018.72
2018-08-19T08:41:54.511Z,1018.73
2018-08-19T08:42:54.519Z,1018.70
2018-08-19T08:43:54.532Z,1018.75
2018-08-19T08:44:54.548Z,1018.76
2018-08-19T08:45:54.562Z,1018.78
2018-08-19T08:46:54.581Z,1018.80
2018-08-19T08:47:54.652Z,1018.35
2018-08-19T08:48:54.610Z,1018.28
2018-08-19T08:49:54.624Z,1018.37
2018-08-19T08:50:54.633Z,1018.41
2018-08-19T08:51:54.647Z,1018.51
2018-08-19T08:52:54.661Z,1018.48
2018-08-19T08:53:54.676Z,1018.35
2018-08-19T08:54:54.694Z,1018.57
2018-08-19T08:55:54.707Z,1018.33
2018-08-19T08:56:54.724Z,1018.31
2018-08-19T08:57:54.730Z,1018.29
2018-08-19T08:58:54.748Z,1018.32
2018-08-19T08:59:54.760Z,1018.64
2018-08-19T09:00:54.775Z,1018.28
2018-08-19T09:01:54.788Z,1018.25
2018-08-19T09:02:54.801Z,1018.27
2018-08-19T09:03:54.808Z,1018.43
2018-08-19T09:04:54.823Z,1018.62
2018-08-19T09:05:54.835Z,1018.62
2018-08-19T09:06:54.844Z,1018.28
2018-08-19T09:07:54.855Z,1018.49
2018-08-19T09:08:54.866Z,1018.46
2018-08-19T09:09:54.878Z,1018.33
2018-08-19T09:10:54.898Z,1018.30
2018-08-19T09:11:54.907Z,1018.64
2018-08-19T09:12:54.914Z,1018.49
2018-08-19T09:13:54.967Z,1018.31
2018-08-19T09:14:54.943Z,1018.56
2018-08-19T09:15:54.955Z,1018.54
2018-08-19T09:16:54.968Z,1018.66
2018-08-19T09:17:54.977Z,1018.30
2018-08-19T09:18:54.986Z,1018.27
2018-08-19T09:19:54.998Z,1018.57
2018-08-19T09:20:55.010Z,1018.19
2018-08-19T09:21:55.022Z,1018.22
2018-08-19T09:22:55.099Z,1018.19
2018-08-19T09:23:55.050Z,1018.22
2018-08-19T09:24:55.066Z,1018.14
2018-08-19T09:25:55.079Z,1018.14
2018-08-19T09:26:55.082Z,1018.12
2018-08-19T09:27:55.094Z,1018.12
2018-08-19T09:28:55.111Z,1018.00
2018-08-19T09:29:55.120Z,1017.98
2018-08-19T09:30:55.127Z,1017.99
2018-08-19T09:31:55.138Z,1017.97
2018-08-19T09:32:55.159Z,1017.95
2018-08-19T09:33:55.159Z,1018.03
2018-08-19T09:34:55.176Z,1018.31
2018-08-19T09:35:55.182Z,1018.48
2018-08-19T09:36:55.196Z,1018.42
2018-08-19T09:37:55.204Z,1018.50
2018-08-19T09:38:55.210Z,1018.35
2018-08-19T09:39:55.221Z,1018.19
2018-08-19T09:40:55.231Z,1018.11
2018-08-19T09:41:55.280Z,1018.06
2018-08-19T09:42:55.266Z,1018.39
2018-08-19T09:43:55.269Z,1018.05
2018-08-19T09:44:55.326Z,1017.99
2018-08-19T09:45:55.289Z,1017.93
2018-08-19T09:46:55.305Z,1018.27
2018-08-19T09:47:55.536Z,1018.27
2018-08-19T09:48:55.325Z,1017.98
2018-08-19T09:49:55.340Z,1017.98
2018-08-19T09:50:55.344Z,1017.95
2018-08-19T09:51:55.356Z,1017.88
2018-08-19T09:52:55.364Z,1017.93
2018-08-19T09:53:55.378Z,1017.90
2018-08-19T09:54:55.391Z,1017.85
2018-08-19T09:55:55.401Z,1017.88
2018-08-19T09:56:55.413Z,1017.92
2018-08-19T09:57:55.423Z,1017.89
2018-08-19T09:58:55.428Z,1017.85
2018-08-19T09:59:55.437Z,1017.76
2018-08-19T10:00:55.453Z,1017.80
2018-08-19T10:01:55.463Z,1017.79
2018-08-19T10:02:55.466Z,1018.08
2018-08-19T10:03:55.478Z,1017.80
2018-08-19T10:04:55.484Z,1018.00
2018-08-19T10:05:55.493Z,1017.75
2018-08-19T10:06:55.511Z,1017.72
2018-08-19T10:07:55.637Z,1017.79
2018-08-19T10:08:55.527Z,1018.07
2018-08-19T10:09:55.537Z,1017.94
2018-08-19T10:10:55.545Z,1017.78
2018-08-19T10:11:55.552Z,1017.69
2018-08-19T10:12:55.559Z,1017.75
2018-08-19T10:13:55.570Z,1017.74
2018-08-19T10:14:55.589Z,1017.83
2018-08-19T10:15:55.594Z,1017.76
2018-08-19T10:16:55.598Z,1017.85
2018-08-19T10:17:55.609Z,1017.92
2018-08-19T10:18:55.628Z,1017.97
2018-08-19T10:19:55.633Z,1017.73
2018-08-19T10:20:55.644Z,1017.56
2018-08-19T10:21:55.653Z,1017.82
2018-08-19T10:22:55.659Z,1017.87
2018-08-19T10:23:55.669Z,1017.84
2018-08-19T10:24:55.679Z,1017.84
2018-08-19T10:25:55.689Z,1017.85
2018-08-19T10:26:55.707Z,1017.83
2018-08-19T10:27:55.717Z,1017.85
2018-08-19T10:28:55.728Z,1017.81
2018-08-19T10:29:55.739Z,1017.79
2018-08-19T10:30:55.747Z,1017.85
2018-08-19T10:31:55.759Z,1017.76
2018-08-19T10:32:55.779Z,1017.78
2018-08-19T10:33:55.789Z,1017.73
2018-08-19T10:34:55.799Z,1017.76
2018-08-19T10:35:55.813Z,1017.72
2018-08-19T10:36:55.825Z,1017.74
2018-08-19T10:37:55.841Z,1017.64
2018-08-19T10:38:55.860Z,1017.68
2018-08-19T10:39:55.874Z,1017.74
2018-08-19T10:40:55.888Z,1017.74
2018-08-19T10:41:55.907Z,1017.50
2018-08-19T10:42:55.913Z,1017.66
2018-08-19T10:43:55.927Z,1017.68
2018-08-19T10:44:55.943Z,1017.66
2018-08-19T10:45:55.957Z,1017.66
2018-08-19T10:46:55.977Z,1017.66
2018-08-19T10:47:55.997Z,1017.43
2018-08-19T10:48:56.003Z,1017.60
2018-08-19T10:49:56.018Z,1017.67
2018-08-19T10:50:56.037Z,1017.56
2018-08-19T10:51:56.052Z,1017.58
2018-08-19T10:52:56.068Z,1017.52
2018-08-19T10:53:56.085Z,1017.55
2018-08-19T10:54:56.097Z,1017.57
2018-08-19T10:55:56.114Z,1017.61
2018-08-19T10:56:56.128Z,1017.59
2018-08-19T10:57:56.147Z,1017.54
2018-08-19T10:58:56.165Z,1017.58
2018-08-19T10:59:56.205Z,1017.53
2018-08-19T11:00:56.195Z,1017.54
2018-08-19T11:01:56.211Z,1017.52
2018-08-19T11:02:56.224Z,1017.58
2018-08-19T11:03:56.237Z,1017.58
2018-08-19T11:04:56.258Z,1017.56
2018-08-19T11:05:56.276Z,1017.53
2018-08-19T11:06:56.288Z,1017.53
2018-08-19T11:07:56.303Z,1017.51
2018-08-19T11:08:56.319Z,1017.47
2018-08-19T11:09:56.336Z,1017.48
2018-08-19T11:10:56.356Z,1017.45
2018-08-19T11:11:56.370Z,1017.49
2018-08-19T11:12:56.386Z,1017.46
2018-08-19T11:13:56.404Z,1017.43
2018-08-19T11:14:56.416Z,1017.44
2018-08-19T11:15:56.431Z,1017.39
2018-08-19T11:16:56.449Z,1017.41
2018-08-19T11:17:56.464Z,1017.39
2018-08-19T11:18:56.487Z,1017.35
2018-08-19T11:19:56.503Z,1017.37
2018-08-19T11:20:56.566Z,1017.28
2018-08-19T11:21:56.531Z,1017.27
2018-08-19T11:22:56.551Z,1017.26
2018-08-19T11:23:56.568Z,1017.24
2018-08-19T11:24:56.583Z,1017.16
2018-08-19T11:25:56.599Z,1017.04
2018-08-19T11:26:56.612Z,1017.04
2018-08-19T11:27:56.626Z,1017.01
2018-08-19T11:28:56.642Z,1016.95
2018-08-19T11:29:56.658Z,1016.91
2018-08-19T11:30:56.677Z,1016.90
2018-08-19T11:31:56.690Z,1016.85
2018-08-19T11:32:56.707Z,1016.87
2018-08-19T11:33:56.778Z,1016.82
2018-08-19T11:34:56.729Z,1016.82
2018-08-19T11:35:56.741Z,1016.77
2018-08-19T11:36:56.763Z,1016.77
2018-08-19T11:37:56.773Z,1016.82
2018-08-19T11:38:56.779Z,1016.76
2018-08-19T11:39:56.791Z,1016.67
2018-08-19T11:40:56.803Z,1016.68
2018-08-19T11:41:56.814Z,1016.67
2018-08-19T11:42:56.830Z,1016.77
2018-08-19T11:43:56.839Z,1016.71
2018-08-19T11:44:56.849Z,1016.72
2018-08-19T11:45:56.860Z,1016.72
2018-08-19T11:46:56.865Z,1016.61
2018-08-19T11:47:56.873Z,1016.63
2018-08-19T11:48:56.967Z,1016.59
2018-08-19T11:49:56.892Z,1016.55
2018-08-19T11:50:56.906Z,1016.62
2018-08-19T11:51:56.919Z,1016.64
2018-08-19T11:52:56.917Z,1016.56
2018-08-19T11:53:56.924Z,1016.58
2018-08-19T11:54:56.939Z,1016.66
2018-08-19T11:55:56.946Z,1016.56
2018-08-19T11:56:56.953Z,1016.62
2018-08-19T11:57:56.961Z,1016.58
2018-08-19T11:58:56.965Z,1016.54
2018-08-19T11:59:56.970Z,1016.56
2018-08-19T12:00:57.011Z,1016.50
2018-08-19T12:01:57.002Z,1016.48
2018-08-19T12:02:56.997Z,1016.53
2018-08-19T12:03:57.002Z,1016.49
2018-08-19T12:04:57.011Z,1016.53
2018-08-19T12:05:57.018Z,1016.52